createdAt,value
2023-02-18T00:01:32.882Z,13.90
2023-02-18T00:04:00.614Z,13.93
2023-02-18T00:06:31.476Z,15.73
2023-02-18T00:09:02.160Z,12.27
2023-02-18T00:11:31.295Z,14.00
2023-02-18T00:14:00.128Z,12.10
2023-02-18T00:16:28.237Z,10.68
2023-02-18T00:18:57.036Z,14.07
2023-02-18T00:21:23.835Z,14.57
2023-02-18T00:23:50.965Z,15.00
2023-02-18T00:26:18.924Z,15.18
2023-02-18T00:28:48.485Z,12.40
2023-02-18T00:31:19.430Z,16.67
2023-02-18T00:33:46.338Z,12.98
2023-02-18T00:36:16.521Z,13.00
2023-02-18T00:38:48.169Z,13.07
2023-02-18T00:41:15.909Z,13.43
2023-02-18T00:43:43.166Z,15.57
2023-02-18T00:46:10.944Z,14.50
2023-02-18T00:48:38.186Z,12.30
2023-02-18T00:51:05.814Z,13.68
2023-02-18T00:53:32.626Z,12.82
2023-02-18T00:55:59.483Z,14.00
2023-02-18T00:58:26.726Z,15.50
2023-02-18T01:00:54.924Z,15.25
2023-02-18T01:03:23.706Z,14.80
2023-02-18T01:05:51.527Z,12.30
2023-02-18T01:08:19.685Z,14.20
2023-02-18T01:10:48.223Z,13.32
2023-02-18T01:13:16.463Z,11.27
2023-02-18T01:15:43.797Z,11.75
2023-02-18T01:18:10.851Z,12.70
2023-02-18T01:20:39.210Z,11.82
2023-02-18T01:23:06.114Z,11.65
2023-02-18T01:25:33.788Z,12.77
2023-02-18T01:28:00.594Z,10.52
2023-02-18T01:30:27.554Z,13.15
2023-02-18T01:32:55.511Z,15.40
2023-02-18T01:35:23.631Z,14.77
2023-02-18T01:37:51.344Z,11.15
2023-02-18T01:40:25.005Z,13.18
2023-02-18T01:42:51.959Z,13.70
2023-02-18T01:45:57.771Z,15.75
2023-02-18T01:48:41.858Z,12.60
2023-02-18T01:51:23.415Z,16.88
2023-02-18T01:54:16.157Z,15.05
2023-02-18T01:56:54.997Z,12.50
2023-02-18T01:59:26.651Z,12.57
2023-02-18T02:01:54.465Z,13.77
2023-02-18T02:04:21.840Z,11.82
2023-02-18T02:06:48.653Z,13.27
2023-02-18T02:09:18.017Z,13.45
2023-02-18T02:12:22.630Z,12.02
2023-02-18T02:15:21.299Z,14.52
2023-02-18T02:18:03.919Z,14.13
2023-02-18T02:20:42.576Z,13.05
2023-02-18T02:23:40.243Z,19.35
2023-02-18T02:26:42.002Z,15.10
2023-02-18T02:29:30.506Z,14.88
2023-02-18T02:32:15.360Z,15.00
2023-02-18T02:34:54.896Z,15.07
2023-02-18T02:37:55.732Z,17.60
2023-02-18T02:40:40.514Z,12.35
2023-02-18T02:43:13.083Z,13.80
2023-02-18T02:45:55.634Z,14.70
2023-02-18T02:48:39.160Z,13.85
2023-02-18T02:51:15.158Z,14.43
2023-02-18T02:53:43.622Z,13.57
2023-02-18T02:56:24.712Z,13.80
2023-02-18T02:59:05.578Z,12.75
2023-02-18T03:01:51.224Z,15.38
2023-02-18T03:04:39.810Z,12.95
2023-02-18T03:07:30.743Z,11.48
2023-02-18T03:10:06.251Z,13.18
2023-02-18T03:12:42.239Z,14.20
2023-02-18T03:15:21.105Z,13.82
2023-02-18T03:17:59.078Z,14.82
2023-02-18T03:20:31.659Z,16.45
2023-02-18T03:23:01.554Z,13.13
2023-02-18T03:25:29.278Z,14.38
2023-02-18T03:28:10.750Z,12.77
2023-02-18T03:30:44.655Z,15.75
2023-02-18T03:33:16.738Z,14.05
2023-02-18T03:35:44.797Z,13.70
2023-02-18T03:38:31.554Z,12.85
2023-02-18T03:40:58.394Z,16.83
2023-02-18T03:43:25.174Z,15.75
2023-02-18T03:45:52.183Z,15.90
2023-02-18T03:48:19.018Z,11.68
2023-02-18T03:50:45.843Z,13.40
2023-02-18T03:53:12.614Z,13.45
2023-02-18T03:55:39.286Z,14.70
2023-02-18T03:58:06.093Z,14.90
2023-02-18T04:00:32.885Z,15.70
2023-02-18T04:02:59.773Z,17.88
2023-02-18T04:05:26.476Z,15.18
2023-02-18T04:07:53.425Z,18.27
2023-02-18T04:10:20.722Z,14.57
2023-02-18T04:12:47.461Z,20.08
2023-02-18T04:15:14.462Z,15.32
2023-02-18T04:17:41.267Z,16.27
2023-02-18T04:20:08.496Z,16.50
2023-02-18T04:22:35.443Z,16.00
2023-02-18T04:25:02.116Z,14.90
2023-02-18T04:27:28.833Z,17.52
2023-02-18T04:29:55.729Z,15.57
2023-02-18T04:32:22.521Z,20.83
2023-02-18T04:34:49.190Z,15.52
2023-02-18T04:37:15.992Z,16.70
2023-02-18T04:39:42.812Z,17.08
2023-02-18T04:42:10.365Z,18.92
2023-02-18T04:44:38.085Z,17.52
2023-02-18T04:47:06.534Z,18.17
2023-02-18T04:49:33.909Z,18.13
2023-02-18T04:52:00.795Z,22.42
2023-02-18T04:54:27.434Z,22.13
2023-02-18T04:56:54.287Z,28.23
2023-02-18T04:59:21.086Z,19.45
2023-02-18T05:01:47.769Z,21.17
2023-02-18T05:04:14.463Z,22.25
2023-02-18T05:06:43.023Z,21.40
2023-02-18T05:09:10.764Z,23.77
2023-02-18T05:11:37.727Z,22.35
2023-02-18T05:14:05.197Z,22.45
2023-02-18T05:16:32.428Z,23.20
2023-02-18T05:18:59.336Z,26.65
2023-02-18T05:21:26.609Z,26.70
2023-02-18T05:23:53.364Z,25.92
2023-02-18T05:26:20.058Z,24.70
2023-02-18T05:28:47.004Z,25.70
2023-02-18T05:31:14.227Z,29.67
2023-02-18T05:33:41.436Z,26.92
2023-02-18T05:36:08.751Z,29.98
2023-02-18T05:38:35.628Z,26.63
2023-02-18T05:41:02.671Z,26.05
2023-02-18T05:43:29.392Z,30.70
2023-02-18T05:45:56.030Z,28.50
2023-02-18T05:48:22.712Z,29.95
2023-02-18T05:50:53.989Z,30.67
2023-02-18T05:53:20.736Z,26.98
2023-02-18T05:55:47.472Z,35.10
2023-02-18T05:58:14.598Z,30.08
2023-02-18T06:00:41.458Z,31.85
2023-02-18T06:03:08.186Z,31.70
2023-02-18T06:05:34.907Z,29.95
2023-02-18T06:08:01.675Z,32.85
2023-02-18T06:10:28.407Z,29.33
2023-02-18T06:12:55.211Z,30.00
2023-02-18T06:15:21.944Z,31.95
2023-02-18T06:17:48.633Z,35.45
2023-02-18T06:20:15.552Z,33.33
2023-02-18T06:22:42.220Z,34.00
2023-02-18T06:25:09.056Z,29.23
2023-02-18T06:27:35.762Z,33.65
2023-02-18T06:30:02.762Z,29.73
2023-02-18T06:32:29.442Z,34.83
2023-02-18T06:34:56.323Z,29.48
2023-02-18T06:37:23.113Z,35.58
2023-02-18T06:39:49.911Z,32.35
2023-02-18T06:42:16.660Z,29.45
2023-02-18T06:44:43.352Z,32.83
2023-02-18T06:47:10.109Z,39.28
2023-02-18T06:49:39.069Z,34.70
2023-02-18T06:52:05.902Z,31.67
2023-02-18T06:54:33.478Z,34.10
2023-02-18T06:57:00.576Z,34.10
2023-02-18T06:59:27.486Z,39.65
2023-02-18T07:01:54.553Z,36.35
2023-02-18T07:04:21.584Z,35.42
2023-02-18T07:06:48.335Z,36.60
2023-02-18T07:09:15.028Z,37.72
2023-02-18T07:11:41.713Z,30.52
2023-02-18T07:14:08.491Z,34.30
2023-02-18T07:16:35.202Z,35.05
2023-02-18T07:19:01.963Z,38.92
2023-02-18T07:21:28.767Z,33.35
2023-02-18T07:23:55.453Z,39.55
2023-02-18T07:26:22.321Z,39.72
2023-02-18T07:28:49.040Z,35.80
2023-02-18T07:31:15.977Z,37.95
2023-02-18T07:33:43.061Z,39.33
2023-02-18T07:36:10.371Z,37.38
2023-02-18T07:38:37.241Z,40.67
2023-02-18T07:41:04.464Z,42.95
2023-02-18T07:43:31.330Z,39.83
2023-02-18T07:45:58.058Z,41.15
2023-02-18T07:48:24.837Z,40.72
2023-02-18T07:50:51.530Z,35.25
2023-02-18T07:53:18.334Z,34.78
2023-02-18T07:55:51.179Z,42.13
2023-02-18T07:58:24.345Z,34.35
2023-02-18T08:00:53.573Z,34.40
2023-02-18T08:03:29.049Z,35.95
2023-02-18T08:05:56.924Z,35.00
2023-02-18T08:08:26.690Z,36.78
2023-02-18T08:10:54.867Z,36.58
2023-02-18T08:13:22.001Z,33.47
2023-02-18T08:15:48.718Z,34.15
2023-02-18T08:18:20.945Z,40.90
2023-02-18T08:20:48.665Z,31.52
2023-02-18T08:23:16.262Z,33.95
2023-02-18T08:25:51.184Z,39.40
2023-02-18T08:28:19.080Z,39.75
2023-02-18T08:30:50.880Z,33.35
2023-02-18T08:33:18.492Z,43.13
2023-02-18T08:35:46.797Z,38.55
2023-02-18T08:38:13.720Z,32.63
2023-02-18T08:40:43.522Z,35.97
2023-02-18T08:43:10.648Z,34.35
2023-02-18T08:45:38.521Z,33.13
2023-02-18T08:48:16.212Z,34.40
2023-02-18T08:50:45.665Z,39.00
2023-02-18T08:53:12.341Z,37.08
2023-02-18T08:55:41.338Z,38.05
2023-02-18T08:58:08.197Z,31.90
2023-02-18T09:00:35.977Z,34.28
2023-02-18T09:03:03.046Z,37.15
2023-02-18T09:05:29.963Z,35.70
2023-02-18T09:07:57.203Z,34.90
2023-02-18T09:10:24.376Z,38.80
2023-02-18T09:12:51.156Z,37.67
2023-02-18T09:15:18.231Z,35.90
2023-02-18T09:17:45.061Z,36.25
2023-02-18T09:20:12.174Z,33.53
2023-02-18T09:22:38.969Z,35.53
2023-02-18T09:25:07.394Z,36.50
2023-02-18T09:27:34.091Z,34.78
2023-02-18T09:30:00.891Z,34.15
2023-02-18T09:32:35.559Z,30.15
2023-02-18T09:35:03.836Z,29.03
2023-02-18T09:37:30.957Z,33.30
2023-02-18T09:39:57.784Z,27.20
2023-02-18T09:42:35.541Z,27.48
2023-02-18T09:45:06.971Z,25.13
2023-02-18T09:47:40.165Z,24.95
2023-02-18T09:50:20.473Z,22.45
2023-02-18T09:52:47.526Z,23.25
2023-02-18T09:55:39.305Z,25.00
2023-02-18T09:58:14.051Z,23.50
2023-02-18T10:00:44.725Z,24.33
2023-02-18T10:03:23.855Z,21.40
2023-02-18T10:05:58.068Z,23.75
2023-02-18T10:08:30.528Z,20.23
2023-02-18T10:10:57.625Z,22.60
2023-02-18T10:13:28.339Z,22.30
2023-02-18T10:15:55.201Z,22.35
2023-02-18T10:18:32.627Z,16.45
2023-02-18T10:21:15.130Z,24.02
2023-02-18T10:24:00.039Z,21.13
2023-02-18T10:26:29.037Z,22.40
2023-02-18T10:28:55.984Z,20.45
2023-02-18T10:31:36.169Z,21.20
2023-02-18T10:34:33.004Z,17.20
2023-02-18T10:37:12.935Z,22.13
2023-02-18T10:39:57.592Z,17.58
2023-02-18T10:42:41.092Z,18.35
2023-02-18T10:45:25.688Z,18.50
2023-02-18T10:48:14.712Z,16.90
2023-02-18T10:50:44.148Z,15.75
2023-02-18T10:53:35.301Z,18.45
2023-02-18T10:56:02.285Z,21.13
2023-02-18T10:58:35.501Z,23.83
2023-02-18T11:01:08.521Z,18.67
2023-02-18T11:03:44.174Z,18.60
2023-02-18T11:09:05.001Z,22.10
2023-02-18T11:11:38.929Z,20.67
2023-02-18T11:14:08.220Z,19.77
2023-02-18T11:16:41.986Z,18.25
2023-02-18T11:19:32.075Z,18.17
2023-02-18T11:22:16.256Z,19.08
2023-02-18T11:24:48.198Z,17.92
2023-02-18T11:27:26.748Z,14.95
2023-02-18T11:30:05.916Z,11.23
2023-02-18T11:32:36.000Z,13.38
2023-02-18T11:35:06.336Z,11.68
2023-02-18T11:37:36.076Z,10.65
2023-02-18T11:40:03.042Z,11.70
2023-02-18T11:42:31.011Z,13.00
2023-02-18T11:45:00.427Z,14.02
2023-02-18T11:47:37.759Z,14.38
2023-02-18T11:50:10.605Z,16.85
2023-02-18T11:52:41.836Z,14.48
2023-02-18T11:55:14.727Z,13.15
2023-02-18T11:58:05.239Z,12.75
2023-02-18T12:00:45.220Z,16.00
2023-02-18T12:03:35.305Z,13.20
2023-02-18T12:06:12.007Z,12.50
2023-02-18T12:08:52.672Z,15.10
2023-02-18T12:11:44.750Z,15.38
2023-02-18T12:14:23.430Z,16.90
2023-02-18T12:16:52.889Z,15.85
2023-02-18T12:19:44.582Z,10.93
2023-02-18T12:22:17.058Z,11.55
2023-02-18T12:25:02.717Z,11.85
2023-02-18T12:27:37.033Z,12.05
2023-02-18T12:30:29.720Z,13.90
2023-02-18T12:32:59.150Z,10.18
2023-02-18T12:36:02.797Z,10.48
2023-02-18T12:38:41.936Z,9.90
2023-02-18T12:41:49.569Z,9.48
2023-02-18T12:44:37.502Z,8.82
2023-02-18T12:47:19.610Z,9.18
2023-02-18T12:50:12.772Z,8.57
2023-02-18T12:52:51.440Z,8.73
2023-02-18T12:55:51.541Z,8.48
2023-02-18T12:58:42.500Z,7.13
2023-02-18T13:01:24.468Z,5.75
2023-02-18T13:03:58.196Z,8.13
2023-02-18T13:06:42.381Z,7.05
2023-02-18T13:09:24.367Z,10.02
2023-02-18T13:12:39.496Z,8.15
2023-02-18T13:15:14.056Z,9.20
2023-02-18T13:17:42.973Z,10.35
2023-02-18T13:20:21.794Z,8.45
2023-02-18T13:22:50.308Z,9.18
2023-02-18T13:25:19.360Z,6.65
2023-02-18T13:28:10.071Z,8.57
2023-02-18T13:30:56.053Z,9.15
2023-02-18T13:33:28.295Z,7.85
2023-02-18T13:35:58.792Z,8.23
2023-02-18T13:38:47.386Z,8.80
2023-02-18T13:41:14.128Z,8.32
2023-02-18T13:43:40.767Z,8.32
2023-02-18T13:46:07.566Z,8.25
2023-02-18T13:48:42.444Z,7.60
2023-02-18T13:51:10.171Z,9.25
2023-02-18T13:53:42.712Z,7.03
2023-02-18T13:56:44.213Z,8.27
2023-02-18T13:59:45.753Z,7.40
2023-02-18T14:02:31.476Z,8.50
2023-02-18T14:05:19.721Z,13.63
2023-02-18T14:07:49.627Z,9.00
2023-02-18T14:10:19.775Z,8.93
2023-02-18T14:12:58.857Z,9.27
2023-02-18T14:15:25.522Z,9.13
2023-02-18T14:18:32.119Z,9.15
2023-02-18T14:21:13.972Z,9.20
2023-02-18T14:23:56.604Z,8.90
2023-02-18T14:26:45.503Z,12.40
2023-02-18T14:29:43.121Z,7.07
2023-02-18T14:32:13.260Z,9.60
2023-02-18T14:35:06.470Z,6.85
2023-02-18T14:38:02.456Z,6.40
2023-02-18T14:43:52.412Z,6.75
2023-02-18T14:46:45.368Z,9.07
2023-02-18T14:49:42.847Z,5.97
2023-02-18T14:52:23.270Z,5.25
2023-02-18T14:54:50.112Z,6.40
2023-02-18T14:57:20.205Z,9.82
2023-02-18T14:59:48.464Z,7.30
2023-02-18T15:02:27.226Z,7.18
2023-02-18T15:04:54.556Z,5.15
2023-02-18T15:07:22.593Z,6.10
2023-02-18T15:09:55.807Z,7.25
2023-02-18T15:12:25.821Z,6.47
2023-02-18T15:14:54.660Z,13.55
2023-02-18T15:17:27.270Z,6.38
2023-02-18T15:20:04.698Z,6.00
2023-02-18T15:22:34.113Z,7.10
2023-02-18T15:25:01.542Z,6.70
2023-02-18T15:27:36.117Z,7.78
2023-02-18T15:30:11.790Z,8.43
2023-02-18T15:32:38.700Z,8.57
2023-02-18T15:35:16.790Z,7.95
2023-02-18T15:37:52.005Z,6.78
2023-02-18T15:40:19.333Z,7.38
2023-02-18T15:42:52.912Z,9.60
2023-02-18T15:45:23.571Z,7.00
2023-02-18T15:47:56.304Z,6.28
2023-02-18T15:50:33.897Z,6.35
2023-02-18T15:53:09.979Z,8.55
2023-02-18T15:55:39.383Z,8.25
2023-02-18T15:58:13.644Z,6.82
2023-02-18T16:00:53.263Z,8.13
2023-02-18T16:03:39.674Z,6.93
2023-02-18T16:06:18.328Z,8.02
2023-02-18T16:09:39.687Z,10.48
2023-02-18T16:12:31.389Z,11.38
2023-02-18T16:15:00.162Z,6.32
2023-02-18T16:17:29.340Z,6.93
2023-02-18T16:20:05.649Z,6.13
2023-02-18T16:22:38.866Z,8.43
2023-02-18T16:25:15.347Z,6.65
2023-02-18T16:27:53.417Z,7.03
2023-02-18T16:30:26.996Z,7.28
2023-02-18T16:32:54.884Z,9.00
2023-02-18T16:35:23.505Z,6.40
2023-02-18T16:37:50.637Z,6.72
2023-02-18T16:40:30.285Z,6.85
2023-02-18T16:43:00.328Z,7.50
2023-02-18T16:45:39.761Z,5.05
2023-02-18T16:48:07.536Z,5.60
2023-02-18T16:50:34.449Z,5.65
2023-02-18T16:53:01.525Z,5.22
2023-02-18T16:55:30.173Z,6.68
2023-02-18T16:57:57.298Z,5.75
2023-02-18T17:00:24.396Z,6.43
2023-02-18T17:02:54.365Z,8.23
2023-02-18T17:05:26.807Z,8.88
2023-02-18T17:07:55.119Z,6.90
2023-02-18T17:10:21.949Z,11.90
2023-02-18T17:12:48.706Z,10.65
2023-02-18T17:15:34.371Z,8.77
2023-02-18T17:18:01.799Z,9.75
2023-02-18T17:20:30.988Z,7.53
2023-02-18T17:22:58.578Z,9.13
2023-02-18T17:25:31.094Z,10.80
2023-02-18T17:27:58.068Z,6.30
2023-02-18T17:30:25.276Z,8.85
2023-02-18T17:32:52.263Z,6.40
2023-02-18T17:35:21.663Z,8.85
2023-02-18T17:37:49.208Z,6.72
2023-02-18T17:40:21.884Z,7.80
2023-02-18T17:42:49.480Z,7.50
2023-02-18T17:45:19.285Z,10.75
2023-02-18T17:47:46.358Z,8.15
2023-02-18T17:50:13.411Z,5.53
2023-02-18T17:52:40.361Z,7.00
2023-02-18T17:55:23.866Z,8.13
2023-02-18T17:57:51.538Z,7.13
2023-02-18T18:00:26.103Z,8.27
2023-02-18T18:02:53.524Z,10.18
2023-02-18T18:05:24.810Z,6.80
2023-02-18T18:07:51.893Z,7.47
2023-02-18T18:10:22.042Z,7.55
2023-02-18T18:12:49.651Z,8.25
2023-02-18T18:15:34.410Z,11.38
2023-02-18T18:18:01.687Z,9.82
2023-02-18T18:20:30.393Z,9.45
2023-02-18T18:23:02.409Z,7.80
2023-02-18T18:25:40.660Z,11.82
2023-02-18T18:28:08.717Z,8.30
2023-02-18T18:30:38.671Z,10.63
2023-02-18T18:33:15.591Z,12.93
2023-02-18T18:35:43.757Z,7.47
2023-02-18T18:38:10.519Z,8.82
2023-02-18T18:40:37.650Z,10.77
2023-02-18T18:43:04.474Z,8.77
2023-02-18T18:45:38.908Z,10.30
2023-02-18T18:48:06.620Z,9.27
2023-02-18T18:50:42.040Z,12.68
2023-02-18T18:53:22.985Z,14.80
2023-02-18T18:55:51.441Z,8.73
2023-02-18T18:58:20.896Z,7.43
2023-02-18T19:00:53.312Z,7.90
2023-02-18T19:03:21.392Z,10.00
2023-02-18T19:05:49.894Z,10.27
2023-02-18T19:08:20.149Z,12.63
2023-02-18T19:10:48.390Z,13.27
2023-02-18T19:13:21.032Z,10.52
2023-02-18T19:15:49.013Z,9.25
2023-02-18T19:18:18.224Z,11.10
2023-02-18T19:20:46.306Z,11.45
2023-02-18T19:23:13.720Z,11.60
2023-02-18T19:25:41.138Z,10.45
2023-02-18T19:28:09.086Z,8.48
2023-02-18T19:30:37.306Z,7.35
2023-02-18T19:33:06.160Z,10.45
2023-02-18T19:35:33.533Z,12.10
2023-02-18T19:38:01.149Z,11.55
2023-02-18T19:40:30.674Z,10.73
2023-02-18T19:42:57.611Z,11.25
2023-02-18T19:45:24.417Z,9.07
2023-02-18T19:47:59.237Z,10.32
2023-02-18T19:50:28.746Z,11.07
2023-02-18T19:52:56.160Z,12.48
2023-02-18T19:55:23.809Z,12.18
2023-02-18T19:57:51.496Z,14.13
2023-02-18T20:00:20.982Z,10.85
2023-02-18T20:02:47.854Z,12.20
2023-02-18T20:05:15.410Z,11.30
2023-02-18T20:07:42.220Z,11.43
2023-02-18T20:10:12.854Z,12.63
2023-02-18T20:12:39.892Z,12.05
2023-02-18T20:15:07.221Z,14.00
2023-02-18T20:17:34.294Z,11.68
2023-02-18T20:20:00.998Z,11.65
2023-02-18T20:22:27.854Z,13.50
2023-02-18T20:24:54.597Z,13.75
2023-02-18T20:27:21.329Z,12.05
2023-02-18T20:29:48.282Z,13.07
2023-02-18T20:32:16.557Z,14.00
2023-02-18T20:34:45.361Z,13.25
2023-02-18T20:37:12.070Z,15.15
2023-02-18T20:39:38.859Z,14.52
2023-02-18T20:42:15.736Z,13.35
2023-02-18T20:44:42.898Z,12.93
2023-02-18T20:47:09.676Z,14.55
2023-02-18T20:49:36.994Z,12.95
2023-02-18T20:52:04.034Z,15.73
2023-02-18T20:54:30.991Z,16.65
2023-02-18T20:56:57.732Z,16.80
2023-02-18T20:59:26.128Z,14.48
2023-02-18T21:01:52.916Z,15.60
2023-02-18T21:04:20.792Z,13.95
2023-02-18T21:06:48.298Z,13.15
2023-02-18T21:09:16.050Z,14.45
2023-02-18T21:11:43.084Z,14.18
2023-02-18T21:14:10.483Z,16.33
2023-02-18T21:16:40.011Z,15.27
2023-02-18T21:19:08.791Z,18.55
2023-02-18T21:21:35.919Z,14.88
2023-02-18T21:24:03.523Z,17.85
2023-02-18T21:26:30.620Z,17.65
2023-02-18T21:29:00.958Z,13.73
2023-02-18T21:31:30.848Z,16.92
2023-02-18T21:33:58.379Z,18.25
2023-02-18T21:36:26.468Z,14.40
2023-02-18T21:38:55.387Z,16.98
2023-02-18T21:41:22.708Z,15.70
2023-02-18T21:43:49.594Z,15.40
2023-02-18T21:46:19.611Z,15.52
2023-02-18T21:49:05.325Z,15.05
2023-02-18T21:51:50.698Z,15.80
2023-02-18T21:54:19.550Z,23.23
2023-02-18T21:56:46.333Z,17.98
2023-02-18T21:59:13.138Z,18.98
2023-02-18T22:01:41.106Z,15.65
2023-02-18T22:04:07.989Z,14.82
2023-02-18T22:06:34.743Z,14.18
2023-02-18T22:09:02.444Z,16.70
2023-02-18T22:11:30.009Z,14.77
2023-02-18T22:13:57.021Z,19.85
2023-02-18T22:16:25.778Z,16.67
2023-02-18T22:18:52.504Z,17.13
2023-02-18T22:21:21.085Z,15.82
2023-02-18T22:23:48.135Z,16.73
2023-02-18T22:26:15.161Z,21.27
2023-02-18T22:28:44.329Z,18.15
2023-02-18T22:31:12.841Z,17.10
2023-02-18T22:33:41.238Z,17.95
2023-02-18T22:36:08.685Z,17.75
2023-02-18T22:38:37.162Z,21.63
2023-02-18T22:41:09.489Z,16.92
2023-02-18T22:43:36.705Z,17.20
2023-02-18T22:46:05.340Z,17.27
2023-02-18T22:48:33.721Z,17.42
2023-02-18T22:51:14.153Z,20.30
2023-02-18T22:53:42.287Z,18.20
2023-02-18T22:56:12.413Z,15.82
2023-02-18T22:58:40.077Z,19.58
2023-02-18T23:01:07.622Z,18.77
2023-02-18T23:03:35.207Z,21.90
2023-02-18T23:06:06.098Z,18.23
2023-02-18T23:08:33.617Z,20.08
2023-02-18T23:11:06.431Z,20.40
2023-02-18T23:13:33.652Z,19.67
2023-02-18T23:16:03.568Z,17.02
2023-02-18T23:18:31.282Z,18.95
2023-02-18T23:21:18.368Z,19.08
2023-02-18T23:23:46.642Z,19.58
2023-02-18T23:26:14.395Z,18.80
2023-02-18T23:28:50.529Z,18.63
2023-02-18T23:31:25.295Z,23.25
2023-02-18T23:33:57.830Z,18.40
2023-02-18T23:36:28.062Z,19.75
2023-02-18T23:38:57.397Z,18.52
2023-02-18T23:41:25.626Z,23.13
2023-02-18T23:43:52.708Z,21.60
2023-02-18T23:46:21.821Z,18.55
2023-02-18T23:48:48.919Z,20.08
2023-02-18T23:51:18.960Z,21.67
2023-02-18T23:53:45.906Z,19.33
2023-02-18T23:56:18.792Z,25.98
2023-02-18T23:58:52.225Z,19.55
